createdAt,value
2019-01-31T00:01:34.296Z,99556.55
2019-01-31T00:04:20.844Z,99561.25
2019-01-31T00:07:01.310Z,99563.09
2019-01-31T00:09:38.770Z,99562.83
2019-01-31T00:12:18.962Z,99560.75
2019-01-31T00:14:53.465Z,99561.93
2019-01-31T00:17:46.031Z,99570.92
2019-01-31T00:20:20.184Z,99574.62
2019-01-31T00:23:20.156Z,99569.62
2019-01-31T00:26:02.924Z,99568.55
2019-01-31T00:29:03.098Z,99563.84
2019-01-31T00:31:55.650Z,99565.05
2019-01-31T00:34:49.815Z,99568.23
2019-01-31T00:37:21.322Z,99562.09
2019-01-31T00:39:52.933Z,99562.00
2019-01-31T00:42:24.451Z,99566.80
2019-01-31T00:45:15.453Z,99562.97
2019-01-31T00:47:55.504Z,99565.48
2019-01-31T00:50:33.076Z,99562.84
2019-01-31T00:53:34.730Z,99560.16
2019-01-31T00:56:18.288Z,99569.02
2019-01-31T00:59:12.334Z,99571.59
2019-01-31T01:01:49.822Z,99573.45
2019-01-31T01:04:30.133Z,99574.75
2019-01-31T01:07:10.608Z,99577.17
2019-01-31T01:09:53.926Z,99572.73
2019-01-31T01:12:44.784Z,99574.25
2019-01-31T01:15:43.468Z,99573.74
2019-01-31T01:18:24.227Z,99574.02
2019-01-31T01:21:03.847Z,99579.92
2019-01-31T01:23:38.028Z,99579.58
2019-01-31T01:26:15.444Z,99583.71
2019-01-31T01:29:07.783Z,99584.38
2019-01-31T01:32:05.013Z,99582.73
2019-01-31T01:34:42.099Z,99589.52
2019-01-31T01:37:19.140Z,99594.89
2019-01-31T01:40:07.316Z,99584.69
2019-01-31T01:42:41.312Z,99589.42
2019-01-31T01:45:24.928Z,99592.11
2019-01-31T01:47:59.497Z,99585.12
2019-01-31T01:50:31.010Z,99583.58
2019-01-31T01:53:26.552Z,99581.83
2019-01-31T01:56:25.300Z,99592.88
2019-01-31T01:59:07.953Z,99583.88
2019-01-31T02:01:45.134Z,99584.22
2019-01-31T02:04:22.340Z,99585.73
2019-01-31T02:07:10.118Z,99583.17
2019-01-31T02:09:56.313Z,99580.05
2019-01-31T02:12:30.876Z,99590.36
2019-01-31T02:15:08.228Z,99586.33
2019-01-31T02:17:42.672Z,99582.73
2019-01-31T02:20:24.901Z,99584.05
2019-01-31T02:23:11.544Z,99575.86
2019-01-31T02:26:02.632Z,99577.73
2019-01-31T02:28:38.661Z,99576.77
2019-01-31T02:31:19.105Z,99578.41
2019-01-31T02:34:05.505Z,99582.61
2019-01-31T02:36:42.648Z,99579.38
2019-01-31T02:39:42.705Z,99576.05
2019-01-31T02:42:24.837Z,99579.44
2019-01-31T02:45:22.336Z,99579.30
2019-01-31T02:48:02.658Z,99580.27
2019-01-31T02:50:42.998Z,99572.83
2019-01-31T02:53:32.789Z,99575.17
2019-01-31T02:56:09.867Z,99576.75
2019-01-31T02:58:44.227Z,99579.83
2019-01-31T03:01:33.977Z,99568.34
2019-01-31T03:04:05.506Z,99568.79
2019-01-31T03:06:40.133Z,99568.79
2019-01-31T03:09:11.652Z,99573.89
2019-01-31T03:11:49.223Z,99574.64
2019-01-31T03:14:20.958Z,99573.54
2019-01-31T03:17:04.205Z,99575.75
2019-01-31T03:19:38.561Z,99573.10
2019-01-31T03:22:12.705Z,99575.92
2019-01-31T03:24:46.997Z,99580.02
2019-01-31T03:27:45.744Z,99577.33
2019-01-31T03:30:33.641Z,99579.34
2019-01-31T03:33:07.929Z,99585.45
2019-01-31T03:35:42.223Z,99582.13
2019-01-31T03:38:25.597Z,99588.98
2019-01-31T03:41:18.304Z,99582.77
2019-01-31T03:43:49.797Z,99577.52
2019-01-31T03:46:35.973Z,99586.59
2019-01-31T03:49:10.343Z,99587.88
2019-01-31T03:52:07.309Z,99583.00
2019-01-31T03:54:44.525Z,99593.34
2019-01-31T03:57:32.419Z,99587.17
2019-01-31T04:00:12.135Z,99591.09
2019-01-31T04:02:52.390Z,99592.58
2019-01-31T04:05:38.864Z,99584.75
2019-01-31T04:08:07.504Z,99589.89
2019-01-31T04:10:35.957Z,99589.42
2019-01-31T04:13:04.589Z,99595.80
2019-01-31T04:15:33.063Z,99593.55
2019-01-31T04:18:01.501Z,99591.84
2019-01-31T04:20:29.985Z,99600.66
2019-01-31T04:22:59.966Z,99599.33
2019-01-31T04:25:28.441Z,99600.70
2019-01-31T04:27:56.926Z,99595.86
2019-01-31T04:30:25.585Z,99590.92
2019-01-31T04:32:54.035Z,99587.94
2019-01-31T04:35:22.496Z,99587.77
2019-01-31T04:37:50.993Z,99594.31
2019-01-31T04:40:30.517Z,99599.96
2019-01-31T04:42:49.587Z,99599.64
2019-01-31T04:45:18.033Z,99594.38
2019-01-31T04:47:46.488Z,99596.46
2019-01-31T04:50:15.497Z,99595.69
2019-01-31T04:52:43.957Z,99601.05
2019-01-31T04:55:12.556Z,99599.38
2019-01-31T04:57:41.025Z,99608.19
2019-01-31T05:00:12.774Z,99599.78
2019-01-31T05:02:41.316Z,99599.95
2019-01-31T05:05:09.917Z,99607.63
2019-01-31T05:07:38.369Z,99605.23
2019-01-31T05:10:09.729Z,99616.92
2019-01-31T05:12:38.193Z,99610.14
2019-01-31T05:15:09.702Z,99609.67
2019-01-31T05:17:38.179Z,99612.41
2019-01-31T05:20:15.605Z,99613.70
2019-01-31T05:22:44.115Z,99616.90
2019-01-31T05:25:14.096Z,99614.52
2019-01-31T05:27:42.560Z,99617.85
2019-01-31T05:30:13.635Z,99621.64
2019-01-31T05:32:42.124Z,99629.23
2019-01-31T05:35:12.301Z,99619.39
2019-01-31T05:37:40.783Z,99619.39
2019-01-31T05:40:12.469Z,99631.69
2019-01-31T05:42:40.944Z,99640.92
2019-01-31T05:45:12.388Z,99633.40
2019-01-31T05:47:40.907Z,99633.09
2019-01-31T05:50:14.543Z,99633.30
2019-01-31T05:52:43.202Z,99637.41
2019-01-31T05:55:12.560Z,99642.61
2019-01-31T05:57:41.027Z,99646.03
2019-01-31T06:00:15.483Z,99647.30
2019-01-31T06:02:43.967Z,99651.47
2019-01-31T06:05:12.780Z,99654.93
2019-01-31T06:07:41.243Z,99650.87
2019-01-31T06:10:11.914Z,99649.55
2019-01-31T06:12:40.370Z,99653.66
2019-01-31T06:15:11.867Z,99653.08
2019-01-31T06:17:40.333Z,99656.14
2019-01-31T06:20:11.858Z,99650.73
2019-01-31T06:22:40.313Z,99651.20
2019-01-31T06:25:08.930Z,99648.45
2019-01-31T06:27:37.453Z,99654.12
2019-01-31T06:30:08.991Z,99657.22
2019-01-31T06:32:37.479Z,99659.56
2019-01-31T06:35:08.975Z,99660.84
2019-01-31T06:37:37.419Z,99666.55
2019-01-31T06:40:12.047Z,99670.08
2019-01-31T06:42:40.558Z,99671.29
2019-01-31T06:45:12.549Z,99673.74
2019-01-31T06:47:40.995Z,99676.36
2019-01-31T06:50:10.341Z,99670.69
2019-01-31T06:52:38.773Z,99677.27
2019-01-31T06:55:09.488Z,99684.89
2019-01-31T06:57:37.927Z,99679.41
2019-01-31T07:00:15.501Z,99675.08
2019-01-31T07:02:43.939Z,99672.87
2019-01-31T07:05:12.563Z,99675.48
2019-01-31T07:07:41.027Z,99683.72
2019-01-31T07:10:12.698Z,99682.64
2019-01-31T07:12:41.147Z,99689.43
2019-01-31T07:15:11.587Z,99692.78
2019-01-31T07:17:40.012Z,99697.13
2019-01-31T07:20:16.818Z,99695.51
2019-01-31T07:22:45.515Z,99694.94
2019-01-31T07:25:24.460Z,99690.03
2019-01-31T07:27:53.585Z,99691.04
2019-01-31T07:30:23.410Z,99688.55
2019-01-31T07:32:51.947Z,99692.95
2019-01-31T07:35:20.678Z,99696.08
2019-01-31T07:37:49.128Z,99702.46
2019-01-31T07:40:22.351Z,99701.86
2019-01-31T07:42:50.854Z,99701.69
2019-01-31T07:45:24.982Z,99694.49
2019-01-31T07:47:53.424Z,99701.38
2019-01-31T07:50:22.067Z,99698.12
2019-01-31T07:52:51.394Z,99701.14
2019-01-31T07:55:20.187Z,99704.86
2019-01-31T07:57:48.634Z,99705.80
2019-01-31T08:00:19.313Z,99705.78
2019-01-31T08:02:47.767Z,99702.19
2019-01-31T08:05:18.092Z,99707.66
2019-01-31T08:07:50.360Z,99705.48
2019-01-31T08:10:26.780Z,99701.67
2019-01-31T08:12:55.562Z,99711.13
2019-01-31T08:15:24.101Z,99715.88
2019-01-31T08:17:52.551Z,99715.61
2019-01-31T08:20:21.315Z,99711.30
2019-01-31T08:22:49.763Z,99714.08
2019-01-31T08:25:22.960Z,99710.61
2019-01-31T08:27:52.357Z,99715.25
2019-01-31T08:30:32.425Z,99720.36
2019-01-31T08:33:00.906Z,99715.67
2019-01-31T08:35:29.460Z,99724.11
2019-01-31T08:37:57.955Z,99724.03
2019-01-31T08:40:26.450Z,99720.30
2019-01-31T08:42:55.093Z,99724.48
2019-01-31T08:45:23.582Z,99730.27
2019-01-31T08:47:52.049Z,99730.27
2019-01-31T08:50:28.416Z,99727.87
2019-01-31T08:52:56.604Z,99727.58
2019-01-31T08:55:25.155Z,99724.30
2019-01-31T08:57:53.633Z,99729.72
2019-01-31T09:00:24.790Z,99736.93
2019-01-31T09:02:53.325Z,99744.91
2019-01-31T09:05:21.766Z,99747.81
2019-01-31T09:07:50.225Z,99741.73
2019-01-31T09:10:24.484Z,99747.52
2019-01-31T09:12:52.950Z,99750.80
2019-01-31T09:15:23.313Z,99737.65
2019-01-31T09:17:52.057Z,99744.80
2019-01-31T09:20:29.350Z,99748.32
2019-01-31T09:23:03.771Z,99747.55
2019-01-31T09:26:08.779Z,99749.14
2019-01-31T09:28:42.948Z,99753.91
2019-01-31T09:31:20.078Z,99745.70
2019-01-31T09:33:54.375Z,99748.05
2019-01-31T09:36:43.585Z,99746.11
2019-01-31T09:39:30.349Z,99741.80
2019-01-31T09:42:11.011Z,99742.16
2019-01-31T09:44:48.641Z,99742.96
2019-01-31T09:47:47.290Z,99747.58
2019-01-31T09:50:24.527Z,99748.31
2019-01-31T09:53:07.466Z,99748.32
2019-01-31T09:55:41.853Z,99753.98
2019-01-31T09:58:16.032Z,99748.47
2019-01-31T10:01:17.938Z,99753.83
2019-01-31T10:04:07.507Z,99746.31
2019-01-31T10:06:44.877Z,99745.19
2019-01-31T10:09:22.183Z,99750.01
2019-01-31T10:12:02.611Z,99747.13
2019-01-31T10:14:53.634Z,99743.91
2019-01-31T10:17:36.448Z,99741.70
2019-01-31T10:20:22.933Z,99740.36
2019-01-31T10:22:57.031Z,99740.51
2019-01-31T10:25:31.165Z,99736.02
2019-01-31T10:28:20.295Z,99735.70
2019-01-31T10:31:16.216Z,99739.08
2019-01-31T10:34:22.564Z,99727.66
2019-01-31T10:36:56.933Z,99730.72
2019-01-31T10:39:54.308Z,99724.72
2019-01-31T10:42:28.598Z,99727.28
2019-01-31T10:45:22.809Z,99718.58
2019-01-31T10:48:08.673Z,99722.20
2019-01-31T10:50:58.647Z,99714.86
2019-01-31T10:53:35.840Z,99721.51
2019-01-31T10:56:07.366Z,99717.15
2019-01-31T10:58:58.528Z,99712.63
2019-01-31T11:01:30.021Z,99716.36
2019-01-31T11:04:22.055Z,99714.98
2019-01-31T11:06:56.153Z,99706.69
2019-01-31T11:09:46.001Z,99718.19
2019-01-31T11:12:29.581Z,99704.88
2019-01-31T11:15:29.723Z,99712.55
2019-01-31T11:18:10.041Z,99707.14
2019-01-31T11:21:00.664Z,99706.70
2019-01-31T11:23:41.060Z,99705.45
2019-01-31T11:26:15.213Z,99703.06
2019-01-31T11:28:49.618Z,99704.07
2019-01-31T11:31:33.214Z,99705.77
2019-01-31T11:34:07.668Z,99704.23
2019-01-31T11:36:45.243Z,99709.30
2019-01-31T11:39:45.866Z,99710.55
2019-01-31T11:42:38.197Z,99708.76
2019-01-31T11:45:35.654Z,99706.28
2019-01-31T11:48:25.030Z,99705.53
2019-01-31T11:51:05.708Z,99705.12
2019-01-31T11:53:40.270Z,99702.43
2019-01-31T11:56:24.085Z,99705.03
2019-01-31T11:59:00.742Z,99705.73
2019-01-31T12:01:29.626Z,99701.56
2019-01-31T12:04:00.374Z,99704.46
2019-01-31T12:06:28.908Z,99709.69
2019-01-31T12:08:57.364Z,99704.88
2019-01-31T12:11:25.833Z,99706.92
2019-01-31T12:13:54.305Z,99706.69
2019-01-31T12:16:22.928Z,99706.28
2019-01-31T12:18:51.386Z,99702.42
2019-01-31T12:21:19.860Z,99696.43
2019-01-31T12:23:48.451Z,99694.66
2019-01-31T12:26:16.984Z,99700.62
2019-01-31T12:28:45.516Z,99695.16
2019-01-31T12:31:14.056Z,99694.51
2019-01-31T12:33:42.450Z,99689.89
2019-01-31T12:36:11.088Z,99690.09
2019-01-31T12:38:39.573Z,99682.24
2019-01-31T12:41:08.061Z,99681.45
2019-01-31T12:43:36.533Z,99678.47
2019-01-31T12:46:05.343Z,99677.62
2019-01-31T12:48:33.815Z,99685.22
2019-01-31T12:51:02.271Z,99677.31
2019-01-31T12:53:30.827Z,99674.92
2019-01-31T12:55:59.301Z,99679.73
2019-01-31T12:58:33.762Z,99682.19
2019-01-31T13:00:57.964Z,99675.20
2019-01-31T13:03:26.473Z,99681.05
2019-01-31T13:05:54.919Z,99683.88
2019-01-31T13:08:23.421Z,99679.69
2019-01-31T13:10:51.935Z,99679.04
2019-01-31T13:13:20.360Z,99681.16
2019-01-31T13:15:48.879Z,99674.53
2019-01-31T13:18:17.329Z,99677.53
2019-01-31T13:20:45.971Z,99680.59
2019-01-31T13:23:14.601Z,99673.06
2019-01-31T13:25:43.233Z,99675.63
2019-01-31T13:28:11.689Z,99670.61
2019-01-31T13:30:40.130Z,99671.51
2019-01-31T13:33:08.818Z,99674.73
2019-01-31T13:35:37.407Z,99671.77
2019-01-31T13:38:05.975Z,99675.81
2019-01-31T13:40:34.485Z,99668.00
2019-01-31T13:43:02.936Z,99676.84
2019-01-31T13:45:35.723Z,99671.44
2019-01-31T13:48:07.233Z,99673.26
2019-01-31T13:50:35.716Z,99676.88
2019-01-31T13:53:06.587Z,99680.59
2019-01-31T13:55:35.211Z,99680.95
2019-01-31T13:58:04.144Z,99676.69
2019-01-31T14:00:32.675Z,99682.17
2019-01-31T14:03:01.182Z,99683.50
2019-01-31T14:05:30.127Z,99685.92
2019-01-31T14:07:58.749Z,99682.44
2019-01-31T14:10:27.989Z,99690.27
2019-01-31T14:12:56.563Z,99689.77
2019-01-31T14:15:33.417Z,99691.09
2019-01-31T14:17:58.028Z,99700.45
2019-01-31T14:20:28.140Z,99692.34
2019-01-31T14:22:56.855Z,99698.95
2019-01-31T14:25:25.657Z,99702.23
2019-01-31T14:27:55.299Z,99695.52
2019-01-31T14:30:29.758Z,99698.01
2019-01-31T14:32:58.830Z,99696.77
2019-01-31T14:35:28.126Z,99694.66
2019-01-31T14:37:56.593Z,99697.63
2019-01-31T14:40:25.506Z,99704.25
2019-01-31T14:42:54.599Z,99711.48
2019-01-31T14:45:23.064Z,99709.79
2019-01-31T14:47:51.624Z,99714.88
2019-01-31T14:50:22.945Z,99706.84
2019-01-31T14:52:51.462Z,99708.26
2019-01-31T14:55:19.934Z,99706.97
2019-01-31T14:57:48.471Z,99706.97
2019-01-31T15:00:19.590Z,99702.57
2019-01-31T15:02:48.050Z,99709.08
2019-01-31T15:05:17.453Z,99712.27
2019-01-31T15:07:46.240Z,99708.59
2019-01-31T15:10:20.232Z,99709.75
2019-01-31T15:12:48.661Z,99703.95
2019-01-31T15:15:17.676Z,99711.66
2019-01-31T15:17:46.185Z,99705.91
2019-01-31T15:20:35.880Z,99709.88
2019-01-31T15:22:56.170Z,99707.84
2019-01-31T15:25:24.795Z,99704.73
2019-01-31T15:27:53.433Z,99709.09
2019-01-31T15:30:27.569Z,99710.84
2019-01-31T15:32:56.149Z,99717.13
2019-01-31T15:35:24.626Z,99704.20
2019-01-31T15:37:53.175Z,99705.20
2019-01-31T15:40:30.896Z,99709.14
2019-01-31T15:42:59.325Z,99706.29
2019-01-31T15:45:27.922Z,99706.03
2019-01-31T15:47:56.635Z,99713.20
2019-01-31T15:50:25.557Z,99702.44
2019-01-31T15:52:54.279Z,99710.22
2019-01-31T15:55:25.216Z,99713.66
2019-01-31T15:57:53.767Z,99705.41
2019-01-31T16:00:41.558Z,99715.67
2019-01-31T16:03:11.948Z,99715.62
2019-01-31T16:05:40.580Z,99716.86
2019-01-31T16:08:10.036Z,99715.90
2019-01-31T16:10:38.576Z,99713.91
2019-01-31T16:13:07.512Z,99714.59
2019-01-31T16:15:36.506Z,99713.84
2019-01-31T16:18:06.599Z,99720.11
2019-01-31T16:20:35.015Z,99711.30
2019-01-31T16:23:03.718Z,99708.84
2019-01-31T16:25:32.290Z,99717.92
2019-01-31T16:28:00.765Z,99716.36
2019-01-31T16:30:29.413Z,99715.09
2019-01-31T16:32:57.904Z,99718.63
2019-01-31T16:35:26.631Z,99709.80
2019-01-31T16:37:55.445Z,99719.04
2019-01-31T16:40:24.566Z,99712.55
2019-01-31T16:42:53.092Z,99719.69
2019-01-31T16:45:21.627Z,99724.49
2019-01-31T16:47:50.118Z,99714.05
2019-01-31T16:50:21.166Z,99709.76
2019-01-31T16:52:49.645Z,99712.99
2019-01-31T16:55:23.982Z,99717.63
2019-01-31T16:57:52.729Z,99713.28
2019-01-31T17:00:32.987Z,99723.06
2019-01-31T17:03:01.529Z,99721.88
2019-01-31T17:05:32.141Z,99726.18
2019-01-31T17:08:00.948Z,99718.94
2019-01-31T17:10:29.593Z,99721.49
2019-01-31T17:12:58.071Z,99719.89
2019-01-31T17:15:27.098Z,99717.17
2019-01-31T17:17:55.671Z,99714.47
2019-01-31T17:20:36.475Z,99718.16
2019-01-31T17:23:05.993Z,99724.41
2019-01-31T17:25:34.615Z,99718.64
2019-01-31T17:28:03.118Z,99721.98
2019-01-31T17:30:31.637Z,99718.14
2019-01-31T17:33:00.538Z,99718.95
2019-01-31T17:35:29.138Z,99716.80
2019-01-31T17:37:57.589Z,99719.81
2019-01-31T17:40:29.179Z,99718.13
2019-01-31T17:42:57.632Z,99719.55
2019-01-31T17:45:30.618Z,99721.71
2019-01-31T17:47:56.915Z,99718.59
2019-01-31T17:50:25.379Z,99723.27
2019-01-31T17:52:53.857Z,99723.45
2019-01-31T17:55:41.598Z,99723.77
2019-01-31T17:58:09.782Z,99724.30
2019-01-31T18:00:44.656Z,99722.96
2019-01-31T18:03:13.124Z,99723.74
2019-01-31T18:05:41.653Z,99729.05
2019-01-31T18:08:10.190Z,99725.58
2019-01-31T18:10:41.605Z,99725.38
2019-01-31T18:13:10.056Z,99721.63
2019-01-31T18:15:42.356Z,99726.60
2019-01-31T18:18:08.981Z,99721.43
2019-01-31T18:20:37.470Z,99722.92
2019-01-31T18:23:05.933Z,99727.05
2019-01-31T18:25:34.504Z,99727.45
2019-01-31T18:28:02.951Z,99727.36
2019-01-31T18:30:34.189Z,99724.39
2019-01-31T18:33:04.193Z,99714.92
2019-01-31T18:35:32.924Z,99718.30
2019-01-31T18:38:01.385Z,99720.03
2019-01-31T18:40:34.585Z,99717.53
2019-01-31T18:43:03.143Z,99717.78
2019-01-31T18:45:34.047Z,99721.50
2019-01-31T18:48:02.999Z,99718.45
2019-01-31T18:50:36.833Z,99719.37
2019-01-31T18:53:05.634Z,99714.10
2019-01-31T18:55:34.191Z,99717.27
2019-01-31T18:58:02.789Z,99716.08
2019-01-31T19:00:37.034Z,99714.00
2019-01-31T19:03:05.985Z,99710.30
2019-01-31T19:05:36.244Z,99718.27
2019-01-31T19:08:08.603Z,99714.08
2019-01-31T19:10:42.885Z,99713.81
2019-01-31T19:13:06.011Z,99715.86
2019-01-31T19:15:34.497Z,99709.84
2019-01-31T19:18:05.929Z,99704.58
2019-01-31T19:20:33.397Z,99707.14
2019-01-31T19:23:04.010Z,99706.53
2019-01-31T19:25:32.626Z,99709.64
2019-01-31T19:28:01.136Z,99710.52
2019-01-31T19:30:31.630Z,99704.20
2019-01-31T19:33:00.197Z,99706.08
2019-01-31T19:35:28.717Z,99708.80
2019-01-31T19:38:01.937Z,99697.65
2019-01-31T19:40:30.072Z,99711.05
2019-01-31T19:42:58.660Z,99699.50
2019-01-31T19:45:30.141Z,99696.53
2019-01-31T19:47:58.689Z,99696.70
2019-01-31T19:50:28.675Z,99691.45
2019-01-31T19:52:57.308Z,99693.39
2019-01-31T19:55:27.141Z,99699.62
2019-01-31T19:57:55.704Z,99695.42
2019-01-31T20:00:25.929Z,99693.58
2019-01-31T20:02:54.853Z,99687.81
2019-01-31T20:05:23.504Z,99692.42
2019-01-31T20:07:52.129Z,99687.31
2019-01-31T20:10:26.307Z,99687.98
2019-01-31T20:12:55.252Z,99682.91
2019-01-31T20:15:24.074Z,99685.20
2019-01-31T20:17:52.691Z,99682.80
2019-01-31T20:20:26.321Z,99683.98
2019-01-31T20:22:55.683Z,99684.42
2019-01-31T20:25:24.611Z,99682.34
2019-01-31T20:27:53.148Z,99682.20
2019-01-31T20:30:26.977Z,99683.31
2019-01-31T20:32:57.361Z,99687.73
2019-01-31T20:35:26.090Z,99686.67
2019-01-31T20:37:54.649Z,99684.15
2019-01-31T20:40:34.633Z,99688.28
2019-01-31T20:43:04.606Z,99688.86
2019-01-31T20:45:33.248Z,99688.86
2019-01-31T20:48:01.749Z,99683.88
2019-01-31T20:50:35.426Z,99684.02
2019-01-31T20:53:04.573Z,99682.04
2019-01-31T20:55:33.121Z,99681.93
2019-01-31T20:58:03.245Z,99683.20
2019-01-31T21:00:35.020Z,99677.94
2019-01-31T21:03:05.101Z,99684.29
2019-01-31T21:05:33.929Z,99681.50
2019-01-31T21:08:02.460Z,99683.65
2019-01-31T21:10:31.006Z,99675.42
2019-01-31T21:13:00.828Z,99681.47
2019-01-31T21:15:29.468Z,99686.67
2019-01-31T21:17:59.462Z,99685.53
2019-01-31T21:20:28.101Z,99680.98
2019-01-31T21:22:57.796Z,99685.23
2019-01-31T21:25:26.436Z,99684.98
2019-01-31T21:27:55.088Z,99685.45
2019-01-31T21:30:29.267Z,99686.36
2019-01-31T21:32:57.819Z,99692.66
2019-01-31T21:35:27.734Z,99694.06
2019-01-31T21:37:56.292Z,99689.19
2019-01-31T21:40:26.914Z,99686.41
2019-01-31T21:42:55.451Z,99690.51
2019-01-31T21:45:25.095Z,99687.19
2019-01-31T21:47:54.660Z,99683.98
2019-01-31T21:50:28.868Z,99685.36
2019-01-31T21:52:57.572Z,99690.31
2019-01-31T21:55:26.153Z,99689.78
2019-01-31T21:57:54.609Z,99685.30
2019-01-31T22:00:28.939Z,99691.36
2019-01-31T22:02:57.402Z,99692.08
2019-01-31T22:05:27.411Z,99681.26
2019-01-31T22:07:56.023Z,99682.05
2019-01-31T22:10:24.748Z,99685.88
2019-01-31T22:12:53.273Z,99679.63
2019-01-31T22:15:24.114Z,99678.52
2019-01-31T22:17:52.595Z,99672.95
2019-01-31T22:20:21.033Z,99672.52
2019-01-31T22:22:49.563Z,99660.15
2019-01-31T22:25:20.197Z,99660.66
2019-01-31T22:27:48.737Z,99649.31
2019-01-31T22:30:28.719Z,99655.81
2019-01-31T22:32:57.168Z,99655.41
2019-01-31T22:35:26.344Z,99652.39
2019-01-31T22:37:54.819Z,99646.41
2019-01-31T22:40:23.259Z,99649.27
2019-01-31T22:42:51.738Z,99651.30
2019-01-31T22:45:24.667Z,99649.33
2019-01-31T22:47:53.554Z,99655.25
2019-01-31T22:50:25.482Z,99651.41
2019-01-31T22:52:54.098Z,99650.45
2019-01-31T22:55:26.929Z,99654.39
2019-01-31T22:57:55.453Z,99659.69
2019-01-31T23:01:02.471Z,99662.35
2019-01-31T23:03:30.937Z,99657.75
2019-01-31T23:05:59.389Z,99653.95
2019-01-31T23:08:27.858Z,99645.90
2019-01-31T23:10:56.468Z,99641.50
2019-01-31T23:13:24.919Z,99645.31
2019-01-31T23:15:53.465Z,99639.81
2019-01-31T23:18:21.943Z,99635.11
2019-01-31T23:20:50.413Z,99632.91
2019-01-31T23:23:18.869Z,99634.17
2019-01-31T23:25:47.324Z,99632.84
2019-01-31T23:28:15.782Z,99633.61
2019-01-31T23:30:44.240Z,99634.89
2019-01-31T23:33:13.450Z,99625.79
2019-01-31T23:35:41.934Z,99631.01
2019-01-31T23:38:10.391Z,99629.72
2019-01-31T23:40:38.854Z,99626.33
2019-01-31T23:43:07.498Z,99630.34
2019-01-31T23:45:35.950Z,99624.95
2019-01-31T23:48:04.712Z,99620.52
2019-01-31T23:50:33.297Z,99610.50
2019-01-31T23:53:01.740Z,99609.05
2019-01-31T23:55:30.181Z,99610.67
2019-01-31T23:57:58.666Z,99613.46
